sensor_id;sensor_type;location;lat;lon;timestamp;P1;durP1;ratioP1;P2;durP2;ratioP2
30617;SDS011;17384;51.214;9.202;2023-05-19T00:00:42;14.68;;;4.47;;
30617;SDS011;17384;51.214;9.202;2023-05-19T00:03:11;9.60;;;4.32;;
30617;SDS011;17384;51.214;9.202;2023-05-19T00:05:38;9.10;;;4.53;;
30617;SDS011;17384;51.214;9.202;2023-05-19T00:08:09;8.35;;;4.95;;
30617;SDS011;17384;51.214;9.202;2023-05-19T00:10:35;20.48;;;4.78;;
30617;SDS011;17384;51.214;9.202;2023-05-19T00:13:01;14.35;;;4.03;;
30617;SDS011;17384;51.214;9.202;2023-05-19T00:15:27;12.65;;;4.97;;
30617;SDS011;17384;51.214;9.202;2023-05-19T00:17:52;8.60;;;4.53;;
30617;SDS011;17384;51.214;9.202;2023-05-19T00:20:19;7.85;;;4.55;;
30617;SDS011;17384;51.214;9.202;2023-05-19T00:22:45;8.65;;;4.20;;
30617;SDS011;17384;51.214;9.202;2023-05-19T00:25:11;11.35;;;5.07;;
30617;SDS011;17384;51.214;9.202;2023-05-19T00:27:36;13.52;;;5.15;;
30617;SDS011;17384;51.214;9.202;2023-05-19T00:30:01;15.00;;;4.43;;
30617;SDS011;17384;51.214;9.202;2023-05-19T00:32:27;12.35;;;3.97;;
30617;SDS011;17384;51.214;9.202;2023-05-19T00:34:52;7.53;;;3.83;;
30617;SDS011;17384;51.214;9.202;2023-05-19T00:37:18;13.13;;;4.22;;
30617;SDS011;17384;51.214;9.202;2023-05-19T00:39:44;8.32;;;4.10;;
30617;SDS011;17384;51.214;9.202;2023-05-19T00:42:09;9.05;;;4.57;;
30617;SDS011;17384;51.214;9.202;2023-05-19T00:44:38;7.22;;;3.97;;
30617;SDS011;17384;51.214;9.202;2023-05-19T00:47:07;17.40;;;4.50;;
30617;SDS011;17384;51.214;9.202;2023-05-19T00:49:33;9.02;;;4.70;;
30617;SDS011;17384;51.214;9.202;2023-05-19T00:52:00;14.07;;;3.72;;
30617;SDS011;17384;51.214;9.202;2023-05-19T00:54:26;10.55;;;3.40;;
30617;SDS011;17384;51.214;9.202;2023-05-19T00:56:53;5.80;;;3.67;;
30617;SDS011;17384;51.214;9.202;2023-05-19T00:59:19;13.10;;;4.40;;
30617;SDS011;17384;51.214;9.202;2023-05-19T01:01:45;12.45;;;4.53;;
30617;SDS011;17384;51.214;9.202;2023-05-19T01:04:14;16.33;;;4.32;;
30617;SDS011;17384;51.214;9.202;2023-05-19T01:06:41;7.15;;;3.88;;
30617;SDS011;17384;51.214;9.202;2023-05-19T01:09:07;12.50;;;3.85;;
30617;SDS011;17384;51.214;9.202;2023-05-19T01:11:33;16.60;;;4.38;;
30617;SDS011;17384;51.214;9.202;2023-05-19T01:13:58;6.25;;;3.50;;
30617;SDS011;17384;51.214;9.202;2023-05-19T01:16:35;8.75;;;3.65;;
30617;SDS011;17384;51.214;9.202;2023-05-19T01:19:21;12.57;;;4.45;;
30617;SDS011;17384;51.214;9.202;2023-05-19T01:30:29;14.50;;;4.88;;
30617;SDS011;17384;51.214;9.202;2023-05-19T01:33:01;11.90;;;3.90;;
30617;SDS011;17384;51.214;9.202;2023-05-19T01:35:30;9.77;;;3.75;;
30617;SDS011;17384;51.214;9.202;2023-05-19T01:37:59;8.02;;;3.78;;
30617;SDS011;17384;51.214;9.202;2023-05-19T01:40:26;6.30;;;3.22;;
30617;SDS011;17384;51.214;9.202;2023-05-19T01:42:54;11.55;;;4.45;;
30617;SDS011;17384;51.214;9.202;2023-05-19T01:45:21;9.15;;;3.90;;
30617;SDS011;17384;51.214;9.202;2023-05-19T01:47:49;19.88;;;4.45;;
30617;SDS011;17384;51.214;9.202;2023-05-19T01:50:17;11.35;;;4.43;;
30617;SDS011;17384;51.214;9.202;2023-05-19T01:52:42;11.02;;;4.15;;
30617;SDS011;17384;51.214;9.202;2023-05-19T01:55:08;8.45;;;3.97;;
30617;SDS011;17384;51.214;9.202;2023-05-19T01:57:46;8.02;;;4.00;;
30617;SDS011;17384;51.214;9.202;2023-05-19T02:00:32;5.78;;;4.03;;
30617;SDS011;17384;51.214;9.202;2023-05-19T02:08:39;13.70;;;4.15;;
30617;SDS011;17384;51.214;9.202;2023-05-19T02:11:29;10.52;;;4.30;;
30617;SDS011;17384;51.214;9.202;2023-05-19T02:14:01;9.57;;;4.25;;
30617;SDS011;17384;51.214;9.202;2023-05-19T02:16:32;9.98;;;4.40;;
30617;SDS011;17384;51.214;9.202;2023-05-19T02:18:59;10.98;;;4.55;;
30617;SDS011;17384;51.214;9.202;2023-05-19T02:21:25;9.23;;;4.28;;
30617;SDS011;17384;51.214;9.202;2023-05-19T02:23:50;17.10;;;4.60;;
30617;SDS011;17384;51.214;9.202;2023-05-19T02:26:18;13.60;;;4.60;;
30617;SDS011;17384;51.214;9.202;2023-05-19T02:28:44;8.38;;;4.28;;
30617;SDS011;17384;51.214;9.202;2023-05-19T02:31:09;8.27;;;4.20;;
30617;SDS011;17384;51.214;9.202;2023-05-19T02:33:35;12.50;;;4.25;;
30617;SDS011;17384;51.214;9.202;2023-05-19T02:36:01;11.27;;;4.53;;
30617;SDS011;17384;51.214;9.202;2023-05-19T02:38:27;10.23;;;4.50;;
30617;SDS011;17384;51.214;9.202;2023-05-19T02:40:52;8.60;;;4.80;;
30617;SDS011;17384;51.214;9.202;2023-05-19T02:43:18;11.43;;;3.85;;
30617;SDS011;17384;51.214;9.202;2023-05-19T02:45:44;11.75;;;4.40;;
30617;SDS011;17384;51.214;9.202;2023-05-19T02:48:09;14.60;;;4.22;;
30617;SDS011;17384;51.214;9.202;2023-05-19T02:50:35;6.45;;;4.00;;
30617;SDS011;17384;51.214;9.202;2023-05-19T02:53:00;8.32;;;4.65;;
30617;SDS011;17384;51.214;9.202;2023-05-19T02:55:26;8.57;;;4.30;;
30617;SDS011;17384;51.214;9.202;2023-05-19T02:57:52;10.02;;;3.70;;
30617;SDS011;17384;51.214;9.202;2023-05-19T03:00:17;9.60;;;3.95;;
30617;SDS011;17384;51.214;9.202;2023-05-19T03:02:43;13.32;;;4.13;;
30617;SDS011;17384;51.214;9.202;2023-05-19T03:05:09;11.85;;;4.45;;
30617;SDS011;17384;51.214;9.202;2023-05-19T03:07:34;7.68;;;3.92;;
30617;SDS011;17384;51.214;9.202;2023-05-19T03:10:00;5.50;;;3.58;;
30617;SDS011;17384;51.214;9.202;2023-05-19T03:12:30;12.48;;;4.35;;
30617;SDS011;17384;51.214;9.202;2023-05-19T03:14:56;7.45;;;4.00;;
30617;SDS011;17384;51.214;9.202;2023-05-19T03:17:21;14.02;;;5.50;;
30617;SDS011;17384;51.214;9.202;2023-05-19T03:19:47;10.27;;;3.90;;
30617;SDS011;17384;51.214;9.202;2023-05-19T03:22:12;9.63;;;3.97;;
30617;SDS011;17384;51.214;9.202;2023-05-19T03:24:37;7.75;;;3.90;;
30617;SDS011;17384;51.214;9.202;2023-05-19T03:27:03;14.63;;;4.85;;
30617;SDS011;17384;51.214;9.202;2023-05-19T03:29:32;9.63;;;4.20;;
30617;SDS011;17384;51.214;9.202;2023-05-19T03:31:57;11.68;;;4.55;;
30617;SDS011;17384;51.214;9.202;2023-05-19T03:34:23;8.07;;;4.38;;
30617;SDS011;17384;51.214;9.202;2023-05-19T03:36:49;15.48;;;5.20;;
30617;SDS011;17384;51.214;9.202;2023-05-19T03:39:15;10.73;;;4.50;;
30617;SDS011;17384;51.214;9.202;2023-05-19T03:41:41;11.00;;;5.07;;
30617;SDS011;17384;51.214;9.202;2023-05-19T03:44:06;9.27;;;4.93;;
30617;SDS011;17384;51.214;9.202;2023-05-19T03:46:31;10.73;;;5.88;;
30617;SDS011;17384;51.214;9.202;2023-05-19T03:48:57;11.90;;;6.00;;
30617;SDS011;17384;51.214;9.202;2023-05-19T03:51:22;8.35;;;5.38;;
30617;SDS011;17384;51.214;9.202;2023-05-19T03:53:48;13.50;;;6.10;;
30617;SDS011;17384;51.214;9.202;2023-05-19T03:56:13;11.90;;;5.85;;
30617;SDS011;17384;51.214;9.202;2023-05-19T03:58:42;15.02;;;5.32;;
30617;SDS011;17384;51.214;9.202;2023-05-19T04:01:08;9.90;;;5.00;;
30617;SDS011;17384;51.214;9.202;2023-05-19T04:03:34;12.18;;;5.47;;
30617;SDS011;17384;51.214;9.202;2023-05-19T04:06:00;9.00;;;4.70;;
30617;SDS011;17384;51.214;9.202;2023-05-19T04:08:25;8.45;;;4.90;;
30617;SDS011;17384;51.214;9.202;2023-05-19T04:10:51;9.43;;;4.40;;
30617;SDS011;17384;51.214;9.202;2023-05-19T04:13:16;7.57;;;4.40;;
30617;SDS011;17384;51.214;9.202;2023-05-19T04:15:41;8.45;;;4.88;;
30617;SDS011;17384;51.214;9.202;2023-05-19T04:18:07;17.30;;;4.75;;
30617;SDS011;17384;51.214;9.202;2023-05-19T04:20:32;12.35;;;5.35;;
30617;SDS011;17384;51.214;9.202;2023-05-19T04:22:58;10.43;;;4.63;;
30617;SDS011;17384;51.214;9.202;2023-05-19T04:25:23;10.32;;;5.05;;
30617;SDS011;17384;51.214;9.202;2023-05-19T04:27:49;14.60;;;5.68;;
30617;SDS011;17384;51.214;9.202;2023-05-19T04:30:14;15.43;;;5.15;;
30617;SDS011;17384;51.214;9.202;2023-05-19T04:32:46;8.18;;;4.63;;
30617;SDS011;17384;51.214;9.202;2023-05-19T04:35:14;6.88;;;4.38;;
30617;SDS011;17384;51.214;9.202;2023-05-19T04:37:41;14.02;;;4.85;;
30617;SDS011;17384;51.214;9.202;2023-05-19T04:40:10;15.07;;;5.03;;
30617;SDS011;17384;51.214;9.202;2023-05-19T04:42:36;11.15;;;5.53;;
30617;SDS011;17384;51.214;9.202;2023-05-19T04:45:05;12.70;;;4.90;;
30617;SDS011;17384;51.214;9.202;2023-05-19T04:47:32;9.75;;;4.63;;
30617;SDS011;17384;51.214;9.202;2023-05-19T04:50:00;15.48;;;4.57;;
30617;SDS011;17384;51.214;9.202;2023-05-19T04:52:26;14.93;;;5.63;;
30617;SDS011;17384;51.214;9.202;2023-05-19T04:54:52;15.45;;;5.63;;
30617;SDS011;17384;51.214;9.202;2023-05-19T04:57:18;18.27;;;5.95;;
30617;SDS011;17384;51.214;9.202;2023-05-19T04:59:43;10.75;;;5.78;;
30617;SDS011;17384;51.214;9.202;2023-05-19T05:02:09;18.73;;;6.75;;
30617;SDS011;17384;51.214;9.202;2023-05-19T05:04:34;12.77;;;5.80;;
30617;SDS011;17384;51.214;9.202;2023-05-19T05:07:00;9.07;;;5.32;;
30617;SDS011;17384;51.214;9.202;2023-05-19T05:09:25;12.63;;;5.65;;
30617;SDS011;17384;51.214;9.202;2023-05-19T05:11:51;14.20;;;5.50;;
30617;SDS011;17384;51.214;9.202;2023-05-19T05:14:17;10.15;;;5.57;;
30617;SDS011;17384;51.214;9.202;2023-05-19T05:16:42;9.60;;;6.20;;
30617;SDS011;17384;51.214;9.202;2023-05-19T05:19:08;24.67;;;6.30;;
30617;SDS011;17384;51.214;9.202;2023-05-19T05:21:34;12.30;;;6.05;;
30617;SDS011;17384;51.214;9.202;2023-05-19T05:24:00;14.60;;;5.53;;
30617;SDS011;17384;51.214;9.202;2023-05-19T05:26:27;16.05;;;5.93;;
30617;SDS011;17384;51.214;9.202;2023-05-19T05:28:56;17.75;;;5.40;;
30617;SDS011;17384;51.214;9.202;2023-05-19T05:31:22;20.63;;;6.15;;
30617;SDS011;17384;51.214;9.202;2023-05-19T05:33:47;16.45;;;5.05;;
30617;SDS011;17384;51.214;9.202;2023-05-19T05:36:16;9.02;;;4.55;;
30617;SDS011;17384;51.214;9.202;2023-05-19T05:38:42;11.82;;;4.47;;
30617;SDS011;17384;51.214;9.202;2023-05-19T05:41:07;8.75;;;4.00;;
30617;SDS011;17384;51.214;9.202;2023-05-19T05:43:33;9.43;;;3.72;;
30617;SDS011;17384;51.214;9.202;2023-05-19T05:45:58;7.65;;;4.10;;
30617;SDS011;17384;51.214;9.202;2023-05-19T05:48:24;11.23;;;4.47;;
30617;SDS011;17384;51.214;9.202;2023-05-19T05:50:50;10.35;;;4.28;;
30617;SDS011;17384;51.214;9.202;2023-05-19T05:53:17;10.57;;;4.00;;
30617;SDS011;17384;51.214;9.202;2023-05-19T05:55:47;14.57;;;4.40;;
30617;SDS011;17384;51.214;9.202;2023-05-19T05:58:13;7.93;;;3.72;;
30617;SDS011;17384;51.214;9.202;2023-05-19T06:00:39;13.23;;;3.75;;
30617;SDS011;17384;51.214;9.202;2023-05-19T06:03:12;13.52;;;4.05;;
30617;SDS011;17384;51.214;9.202;2023-05-19T06:05:38;9.65;;;3.60;;
30617;SDS011;17384;51.214;9.202;2023-05-19T06:08:06;12.95;;;3.70;;
30617;SDS011;17384;51.214;9.202;2023-05-19T06:10:32;14.25;;;3.58;;
30617;SDS011;17384;51.214;9.202;2023-05-19T06:12:59;13.07;;;3.50;;
30617;SDS011;17384;51.214;9.202;2023-05-19T06:15:25;13.27;;;3.80;;
30617;SDS011;17384;51.214;9.202;2023-05-19T06:17:50;10.40;;;3.30;;
30617;SDS011;17384;51.214;9.202;2023-05-19T06:20:16;11.88;;;3.50;;
30617;SDS011;17384;51.214;9.202;2023-05-19T06:22:42;9.85;;;4.15;;
30617;SDS011;17384;51.214;9.202;2023-05-19T06:25:07;13.23;;;3.58;;
30617;SDS011;17384;51.214;9.202;2023-05-19T06:27:34;8.60;;;3.25;;
30617;SDS011;17384;51.214;9.202;2023-05-19T06:29:59;10.15;;;3.50;;
30617;SDS011;17384;51.214;9.202;2023-05-19T06:32:25;5.55;;;3.00;;
30617;SDS011;17384;51.214;9.202;2023-05-19T06:34:51;11.73;;;3.40;;
30617;SDS011;17384;51.214;9.202;2023-05-19T06:37:21;10.07;;;3.33;;
30617;SDS011;17384;51.214;9.202;2023-05-19T06:39:53;9.32;;;3.17;;
30617;SDS011;17384;51.214;9.202;2023-05-19T06:42:19;11.30;;;3.97;;
30617;SDS011;17384;51.214;9.202;2023-05-19T06:44:50;11.20;;;4.03;;
30617;SDS011;17384;51.214;9.202;2023-05-19T06:47:16;8.05;;;3.30;;
30617;SDS011;17384;51.214;9.202;2023-05-19T06:49:46;10.20;;;2.83;;
30617;SDS011;17384;51.214;9.202;2023-05-19T06:52:18;12.95;;;3.67;;
30617;SDS011;17384;51.214;9.202;2023-05-19T06:54:44;18.67;;;3.60;;
30617;SDS011;17384;51.214;9.202;2023-05-19T06:57:10;8.75;;;2.80;;
30617;SDS011;17384;51.214;9.202;2023-05-19T06:59:35;7.43;;;3.20;;
30617;SDS011;17384;51.214;9.202;2023-05-19T07:02:01;19.08;;;3.30;;
30617;SDS011;17384;51.214;9.202;2023-05-19T07:04:28;12.35;;;3.03;;
30617;SDS011;17384;51.214;9.202;2023-05-19T07:06:54;10.65;;;3.20;;
30617;SDS011;17384;51.214;9.202;2023-05-19T07:09:20;12.30;;;3.03;;
30617;SDS011;17384;51.214;9.202;2023-05-19T07:11:45;9.43;;;3.45;;
30617;SDS011;17384;51.214;9.202;2023-05-19T07:14:13;7.22;;;3.20;;
30617;SDS011;17384;51.214;9.202;2023-05-19T07:16:39;6.85;;;3.10;;
30617;SDS011;17384;51.214;9.202;2023-05-19T07:19:05;10.88;;;3.80;;
30617;SDS011;17384;51.214;9.202;2023-05-19T07:21:30;10.90;;;3.25;;
30617;SDS011;17384;51.214;9.202;2023-05-19T07:23:56;11.27;;;3.15;;
30617;SDS011;17384;51.214;9.202;2023-05-19T07:26:21;11.48;;;3.15;;
30617;SDS011;17384;51.214;9.202;2023-05-19T07:28:46;14.73;;;3.47;;
30617;SDS011;17384;51.214;9.202;2023-05-19T07:31:12;8.07;;;2.90;;
30617;SDS011;17384;51.214;9.202;2023-05-19T07:33:37;8.43;;;2.72;;
30617;SDS011;17384;51.214;9.202;2023-05-19T07:36:05;9.25;;;3.30;;
30617;SDS011;17384;51.214;9.202;2023-05-19T07:38:30;6.40;;;2.30;;
30617;SDS011;17384;51.214;9.202;2023-05-19T07:40:58;9.13;;;2.72;;
30617;SDS011;17384;51.214;9.202;2023-05-19T07:43:25;6.20;;;2.40;;
30617;SDS011;17384;51.214;9.202;2023-05-19T07:45:51;8.82;;;2.60;;
30617;SDS011;17384;51.214;9.202;2023-05-19T07:48:20;12.00;;;2.42;;
30617;SDS011;17384;51.214;9.202;2023-05-19T07:50:50;4.63;;;2.03;;
30617;SDS011;17384;51.214;9.202;2023-05-19T07:53:17;7.75;;;2.70;;
30617;SDS011;17384;51.214;9.202;2023-05-19T07:55:44;10.55;;;2.30;;
30617;SDS011;17384;51.214;9.202;2023-05-19T07:58:10;10.60;;;2.83;;
30617;SDS011;17384;51.214;9.202;2023-05-19T08:00:36;5.90;;;1.70;;
30617;SDS011;17384;51.214;9.202;2023-05-19T08:03:04;6.88;;;2.00;;
30617;SDS011;17384;51.214;9.202;2023-05-19T08:05:29;6.38;;;2.38;;
30617;SDS011;17384;51.214;9.202;2023-05-19T08:07:55;3.75;;;1.40;;
30617;SDS011;17384;51.214;9.202;2023-05-19T08:10:21;8.43;;;2.10;;
30617;SDS011;17384;51.214;9.202;2023-05-19T08:12:47;5.45;;;1.92;;
30617;SDS011;17384;51.214;9.202;2023-05-19T08:15:13;6.25;;;2.38;;
30617;SDS011;17384;51.214;9.202;2023-05-19T08:17:38;5.80;;;1.70;;
30617;SDS011;17384;51.214;9.202;2023-05-19T08:20:04;7.13;;;2.17;;
30617;SDS011;17384;51.214;9.202;2023-05-19T08:22:34;6.00;;;1.92;;
30617;SDS011;17384;51.214;9.202;2023-05-19T08:25:00;7.55;;;2.00;;
30617;SDS011;17384;51.214;9.202;2023-05-19T08:27:26;8.52;;;2.20;;
30617;SDS011;17384;51.214;9.202;2023-05-19T08:29:51;4.50;;;2.08;;
30617;SDS011;17384;51.214;9.202;2023-05-19T08:32:17;8.18;;;2.42;;
30617;SDS011;17384;51.214;9.202;2023-05-19T08:34:42;5.18;;;1.90;;
30617;SDS011;17384;51.214;9.202;2023-05-19T08:37:07;7.75;;;2.05;;
30617;SDS011;17384;51.214;9.202;2023-05-19T08:39:33;6.10;;;2.33;;
30617;SDS011;17384;51.214;9.202;2023-05-19T08:41:59;7.68;;;2.28;;
30617;SDS011;17384;51.214;9.202;2023-05-19T08:44:25;6.88;;;2.10;;
30617;SDS011;17384;51.214;9.202;2023-05-19T08:46:51;10.10;;;2.35;;
30617;SDS011;17384;51.214;9.202;2023-05-19T08:49:20;4.68;;;2.65;;
30617;SDS011;17384;51.214;9.202;2023-05-19T08:54:34;6.68;;;2.58;;
30617;SDS011;17384;51.214;9.202;2023-05-19T08:57:05;6.38;;;2.30;;
30617;SDS011;17384;51.214;9.202;2023-05-19T08:59:31;5.38;;;2.35;;
30617;SDS011;17384;51.214;9.202;2023-05-19T09:01:58;11.30;;;3.28;;
30617;SDS011;17384;51.214;9.202;2023-05-19T09:04:24;4.07;;;2.20;;
30617;SDS011;17384;51.214;9.202;2023-05-19T09:06:52;7.18;;;2.97;;
30617;SDS011;17384;51.214;9.202;2023-05-19T09:09:17;10.27;;;2.58;;
30617;SDS011;17384;51.214;9.202;2023-05-19T09:11:44;7.53;;;2.13;;
30617;SDS011;17384;51.214;9.202;2023-05-19T09:14:10;11.00;;;3.08;;
30617;SDS011;17384;51.214;9.202;2023-05-19T09:16:36;10.52;;;2.42;;
30617;SDS011;17384;51.214;9.202;2023-05-19T09:19:01;9.02;;;2.75;;
30617;SDS011;17384;51.214;9.202;2023-05-19T09:21:27;8.25;;;2.97;;
30617;SDS011;17384;51.214;9.202;2023-05-19T09:23:55;12.43;;;3.00;;
30617;SDS011;17384;51.214;9.202;2023-05-19T09:26:36;7.60;;;2.60;;
30617;SDS011;17384;51.214;9.202;2023-05-19T09:29:14;9.18;;;3.20;;
30617;SDS011;17384;51.214;9.202;2023-05-19T09:31:47;10.73;;;2.88;;
30617;SDS011;17384;51.214;9.202;2023-05-19T09:34:17;7.60;;;2.70;;
30617;SDS011;17384;51.214;9.202;2023-05-19T09:36:43;8.32;;;2.67;;
30617;SDS011;17384;51.214;9.202;2023-05-19T09:39:16;5.18;;;2.33;;
30617;SDS011;17384;51.214;9.202;2023-05-19T09:41:43;6.28;;;2.40;;
30617;SDS011;17384;51.214;9.202;2023-05-19T09:44:12;8.73;;;2.30;;
30617;SDS011;17384;51.214;9.202;2023-05-19T09:46:46;5.28;;;2.88;;
30617;SDS011;17384;51.214;9.202;2023-05-19T09:49:18;11.75;;;2.60;;
30617;SDS011;17384;51.214;9.202;2023-05-19T09:51:48;25.20;;;4.55;;
30617;SDS011;17384;51.214;9.202;2023-05-19T09:54:23;26.77;;;4.82;;
30617;SDS011;17384;51.214;9.202;2023-05-19T09:56:55;6.68;;;2.78;;
30617;SDS011;17384;51.214;9.202;2023-05-19T09:59:22;11.20;;;3.60;;
30617;SDS011;17384;51.214;9.202;2023-05-19T10:01:50;4.50;;;2.65;;
30617;SDS011;17384;51.214;9.202;2023-05-19T10:04:26;6.75;;;2.58;;
30617;SDS011;17384;51.214;9.202;2023-05-19T10:06:54;9.82;;;2.10;;
30617;SDS011;17384;51.214;9.202;2023-05-19T10:09:27;6.45;;;2.60;;
30617;SDS011;17384;51.214;9.202;2023-05-19T10:11:56;7.45;;;2.75;;
30617;SDS011;17384;51.214;9.202;2023-05-19T10:14:23;5.93;;;2.60;;
30617;SDS011;17384;51.214;9.202;2023-05-19T10:16:51;5.93;;;2.42;;
30617;SDS011;17384;51.214;9.202;2023-05-19T10:19:25;4.60;;;2.45;;
30617;SDS011;17384;51.214;9.202;2023-05-19T10:21:52;6.85;;;2.85;;
30617;SDS011;17384;51.214;9.202;2023-05-19T10:24:18;6.50;;;2.60;;
30617;SDS011;17384;51.214;9.202;2023-05-19T10:29:44;9.45;;;2.70;;
30617;SDS011;17384;51.214;9.202;2023-05-19T10:32:15;8.02;;;2.75;;
30617;SDS011;17384;51.214;9.202;2023-05-19T10:45:50;9.20;;;2.85;;
30617;SDS011;17384;51.214;9.202;2023-05-19T10:48:18;5.32;;;2.08;;
30617;SDS011;17384;51.214;9.202;2023-05-19T10:50:46;5.20;;;2.20;;
30617;SDS011;17384;51.214;9.202;2023-05-19T10:53:14;6.45;;;2.38;;
30617;SDS011;17384;51.214;9.202;2023-05-19T10:55:50;5.78;;;2.45;;
30617;SDS011;17384;51.214;9.202;2023-05-19T10:58:39;6.07;;;2.20;;
30617;SDS011;17384;51.214;9.202;2023-05-19T11:01:13;9.93;;;2.28;;
30617;SDS011;17384;51.214;9.202;2023-05-19T11:03:43;9.27;;;2.10;;
30617;SDS011;17384;51.214;9.202;2023-05-19T11:09:00;5.28;;;2.15;;
30617;SDS011;17384;51.214;9.202;2023-05-19T11:14:09;7.07;;;2.05;;
30617;SDS011;17384;51.214;9.202;2023-05-19T11:16:39;5.00;;;2.65;;
30617;SDS011;17384;51.214;9.202;2023-05-19T11:19:16;3.58;;;1.98;;
30617;SDS011;17384;51.214;9.202;2023-05-19T11:21:47;3.28;;;1.73;;
30617;SDS011;17384;51.214;9.202;2023-05-19T11:29:53;13.52;;;2.38;;
30617;SDS011;17384;51.214;9.202;2023-05-19T11:32:20;6.40;;;1.73;;
30617;SDS011;17384;51.214;9.202;2023-05-19T11:34:47;6.10;;;2.05;;
30617;SDS011;17384;51.214;9.202;2023-05-19T11:37:14;6.50;;;1.95;;
30617;SDS011;17384;51.214;9.202;2023-05-19T11:39:40;6.18;;;1.88;;
30617;SDS011;17384;51.214;9.202;2023-05-19T11:42:07;6.53;;;2.15;;
30617;SDS011;17384;51.214;9.202;2023-05-19T11:44:33;2.70;;;1.63;;
30617;SDS011;17384;51.214;9.202;2023-05-19T11:46:59;5.53;;;1.95;;
30617;SDS011;17384;51.214;9.202;2023-05-19T11:49:27;6.68;;;2.05;;
30617;SDS011;17384;51.214;9.202;2023-05-19T11:51:53;7.90;;;2.00;;
30617;SDS011;17384;51.214;9.202;2023-05-19T11:54:19;3.80;;;1.60;;
30617;SDS011;17384;51.214;9.202;2023-05-19T11:56:44;2.65;;;1.30;;
30617;SDS011;17384;51.214;9.202;2023-05-19T11:59:11;4.20;;;1.80;;
30617;SDS011;17384;51.214;9.202;2023-05-19T12:01:36;2.13;;;1.45;;
30617;SDS011;17384;51.214;9.202;2023-05-19T12:04:06;7.68;;;2.40;;
30617;SDS011;17384;51.214;9.202;2023-05-19T12:06:34;4.93;;;1.80;;
30617;SDS011;17384;51.214;9.202;2023-05-19T12:09:00;5.63;;;2.10;;
30617;SDS011;17384;51.214;9.202;2023-05-19T12:11:27;5.60;;;1.98;;
30617;SDS011;17384;51.214;9.202;2023-05-19T12:13:54;8.02;;;2.13;;
30617;SDS011;17384;51.214;9.202;2023-05-19T12:16:22;5.05;;;1.80;;
30617;SDS011;17384;51.214;9.202;2023-05-19T12:18:48;2.90;;;1.73;;
30617;SDS011;17384;51.214;9.202;2023-05-19T12:21:13;5.25;;;2.55;;
30617;SDS011;17384;51.214;9.202;2023-05-19T12:23:39;7.55;;;2.72;;
30617;SDS011;17384;51.214;9.202;2023-05-19T12:26:06;4.68;;;2.25;;
30617;SDS011;17384;51.214;9.202;2023-05-19T12:28:32;4.20;;;2.03;;
30617;SDS011;17384;51.214;9.202;2023-05-19T12:30:57;5.60;;;1.80;;
30617;SDS011;17384;51.214;9.202;2023-05-19T12:33:23;11.50;;;2.80;;
30617;SDS011;17384;51.214;9.202;2023-05-19T12:35:49;10.32;;;2.08;;
30617;SDS011;17384;51.214;9.202;2023-05-19T12:38:15;5.45;;;1.92;;
30617;SDS011;17384;51.214;9.202;2023-05-19T12:40:43;6.93;;;2.92;;
30617;SDS011;17384;51.214;9.202;2023-05-19T12:43:17;7.18;;;2.67;;
30617;SDS011;17384;51.214;9.202;2023-05-19T12:45:44;7.43;;;2.08;;
30617;SDS011;17384;51.214;9.202;2023-05-19T12:48:10;4.50;;;1.55;;
30617;SDS011;17384;51.214;9.202;2023-05-19T12:50:36;5.03;;;2.00;;
30617;SDS011;17384;51.214;9.202;2023-05-19T12:53:02;2.95;;;1.50;;
30617;SDS011;17384;51.214;9.202;2023-05-19T12:55:36;6.43;;;2.20;;
30617;SDS011;17384;51.214;9.202;2023-05-19T12:58:13;5.57;;;1.50;;
30617;SDS011;17384;51.214;9.202;2023-05-19T13:00:43;3.65;;;1.90;;
30617;SDS011;17384;51.214;9.202;2023-05-19T13:03:19;3.33;;;1.52;;
30617;SDS011;17384;51.214;9.202;2023-05-19T13:05:46;4.22;;;1.52;;
30617;SDS011;17384;51.214;9.202;2023-05-19T13:08:17;2.05;;;1.42;;
30617;SDS011;17384;51.214;9.202;2023-05-19T13:10:44;1.95;;;1.30;;
30617;SDS011;17384;51.214;9.202;2023-05-19T13:13:11;6.93;;;1.83;;
30617;SDS011;17384;51.214;9.202;2023-05-19T13:15:38;4.50;;;1.88;;
30617;SDS011;17384;51.214;9.202;2023-05-19T13:18:06;5.05;;;1.52;;
30617;SDS011;17384;51.214;9.202;2023-05-19T13:20:32;5.40;;;1.98;;
30617;SDS011;17384;51.214;9.202;2023-05-19T13:22:59;6.47;;;2.65;;
30617;SDS011;17384;51.214;9.202;2023-05-19T13:25:25;4.63;;;1.92;;
30617;SDS011;17384;51.214;9.202;2023-05-19T13:27:51;4.38;;;1.90;;
30617;SDS011;17384;51.214;9.202;2023-05-19T13:30:16;3.95;;;1.60;;
30617;SDS011;17384;51.214;9.202;2023-05-19T13:32:43;3.50;;;1.80;;
30617;SDS011;17384;51.214;9.202;2023-05-19T13:35:09;3.42;;;1.45;;
30617;SDS011;17384;51.214;9.202;2023-05-19T13:37:36;7.20;;;1.88;;
30617;SDS011;17384;51.214;9.202;2023-05-19T13:40:03;4.78;;;1.77;;
30617;SDS011;17384;51.214;9.202;2023-05-19T13:42:30;4.15;;;1.80;;
30617;SDS011;17384;51.214;9.202;2023-05-19T13:44:56;9.35;;;1.73;;
30617;SDS011;17384;51.214;9.202;2023-05-19T13:47:22;3.33;;;2.00;;
30617;SDS011;17384;51.214;9.202;2023-05-19T13:49:48;3.75;;;1.90;;
30617;SDS011;17384;51.214;9.202;2023-05-19T13:52:13;4.65;;;1.92;;
30617;SDS011;17384;51.214;9.202;2023-05-19T13:54:39;2.78;;;1.83;;
30617;SDS011;17384;51.214;9.202;2023-05-19T13:57:04;4.80;;;1.90;;
30617;SDS011;17384;51.214;9.202;2023-05-19T13:59:30;3.13;;;1.60;;
30617;SDS011;17384;51.214;9.202;2023-05-19T14:01:56;4.38;;;1.67;;
30617;SDS011;17384;51.214;9.202;2023-05-19T14:04:21;3.22;;;1.90;;
30617;SDS011;17384;51.214;9.202;2023-05-19T14:06:48;3.90;;;1.90;;
30617;SDS011;17384;51.214;9.202;2023-05-19T14:09:14;4.03;;;1.42;;
30617;SDS011;17384;51.214;9.202;2023-05-19T14:11:40;2.85;;;1.42;;
30617;SDS011;17384;51.214;9.202;2023-05-19T14:14:06;7.25;;;1.58;;
30617;SDS011;17384;51.214;9.202;2023-05-19T14:16:31;3.17;;;1.73;;
30617;SDS011;17384;51.214;9.202;2023-05-19T14:18:57;3.63;;;1.30;;
30617;SDS011;17384;51.214;9.202;2023-05-19T14:21:23;2.90;;;1.83;;
30617;SDS011;17384;51.214;9.202;2023-05-19T14:23:48;4.75;;;1.83;;
30617;SDS011;17384;51.214;9.202;2023-05-19T14:26:14;3.40;;;2.05;;
30617;SDS011;17384;51.214;9.202;2023-05-19T14:28:40;3.55;;;1.92;;
30617;SDS011;17384;51.214;9.202;2023-05-19T14:31:09;8.07;;;2.05;;
30617;SDS011;17384;51.214;9.202;2023-05-19T14:33:41;3.22;;;1.70;;
30617;SDS011;17384;51.214;9.202;2023-05-19T14:36:07;8.52;;;1.95;;
30617;SDS011;17384;51.214;9.202;2023-05-19T14:38:33;2.42;;;1.80;;
30617;SDS011;17384;51.214;9.202;2023-05-19T14:40:59;3.83;;;1.90;;
30617;SDS011;17384;51.214;9.202;2023-05-19T14:43:24;3.25;;;1.42;;
30617;SDS011;17384;51.214;9.202;2023-05-19T14:45:50;5.80;;;1.80;;
30617;SDS011;17384;51.214;9.202;2023-05-19T14:48:16;2.30;;;1.33;;
30617;SDS011;17384;51.214;9.202;2023-05-19T14:50:42;2.78;;;1.50;;
30617;SDS011;17384;51.214;9.202;2023-05-19T14:53:08;2.85;;;1.55;;
30617;SDS011;17384;51.214;9.202;2023-05-19T14:55:34;3.58;;;1.73;;
30617;SDS011;17384;51.214;9.202;2023-05-19T14:58:00;5.28;;;2.35;;
30617;SDS011;17384;51.214;9.202;2023-05-19T15:00:25;7.60;;;2.08;;
30617;SDS011;17384;51.214;9.202;2023-05-19T15:02:51;3.88;;;1.60;;
30617;SDS011;17384;51.214;9.202;2023-05-19T15:05:17;4.72;;;2.17;;
30617;SDS011;17384;51.214;9.202;2023-05-19T15:07:43;7.47;;;2.47;;
30617;SDS011;17384;51.214;9.202;2023-05-19T15:10:08;7.78;;;2.33;;
30617;SDS011;17384;51.214;9.202;2023-05-19T15:12:34;3.95;;;1.98;;
30617;SDS011;17384;51.214;9.202;2023-05-19T15:15:00;10.82;;;2.20;;
30617;SDS011;17384;51.214;9.202;2023-05-19T15:17:25;5.93;;;2.03;;
30617;SDS011;17384;51.214;9.202;2023-05-19T15:19:50;5.10;;;1.70;;
30617;SDS011;17384;51.214;9.202;2023-05-19T15:22:16;4.03;;;2.03;;
30617;SDS011;17384;51.214;9.202;2023-05-19T15:24:42;4.13;;;1.70;;